Time;durP1;ratioP1;P1;durP2;ratioP2;P2;SDS_P1;SDS_P2;PMS_P1;PMS_P2;Temp;Humidity;BMP_temperature;BMP_pressure;BME280_temperature;BME280_humidity;BME280_pressure;Samples;Min_cycle;Max_cycle;Signal;HPM_P1;HPM_P2
2023/11/03 00:00:56;;;;;;;;;;;;;;;;;;5094663;28;19922;-74
2023/11/03 00:03:22;;;;;;;;;;;;;;;;;;5095189;28;19934;-75
2023/11/03 00:05:48;;;;;;;;;;;;;;;;;;5095073;28;19912;-74
2023/11/03 00:08:14;;;;;;;;;;;;;;;;;;5094854;28;20034;-74
2023/11/03 00:10:40;;;;;;;;;;;;;;;;;;5095038;28;19968;-74
2023/11/03 00:13:06;;;;;;;;;;;;;;;;;;5076789;28;19916;-74
2023/11/03 00:15:33;;;;;;;;;;;;;;;;;;5094491;28;19919;-74
2023/11/03 00:17:59;;;;;;;;;;;;;;;;;;5076604;28;19922;-74
2023/11/03 00:20:25;;;;;;;;;;;;;;;;;;5094553;28;20019;-74
2023/11/03 00:22:51;;;;;;;;;;;;;;;;;;5094362;28;19912;-75
2023/11/03 00:25:17;;;;;;;;;;;;;;;;;;5094917;28;19917;-75
2023/11/03 00:27:44;;;;;;;;;;;;;;;;;;5094698;28;19914;-74
2023/11/03 00:30:11;;;;;;;;;;;;;;;;;;5093737;28;19908;-75
2023/11/03 00:32:37;;;;;;;;;;;;;;;;;;5094560;28;20326;-74
2023/11/03 00:35:06;;;;;;;;;;;;;;;;;;5076435;28;19908;-74
2023/11/03 00:37:32;;;;;;;;;;;;;;;;;;5094148;28;19961;-75
2023/11/03 00:39:58;;;;;;;;;;;;;;;;;;5094796;28;19919;-75
2023/11/03 00:42:25;;;;;;;;;;;;;;;;;;5094019;28;19908;-75
2023/11/03 00:44:51;;;;;;;;;;;;;;;;;;5094398;28;19931;-75
2023/11/03 00:47:17;;;;;;;;;;;;;;;;;;5094454;28;20284;-75
2023/11/03 00:49:43;;;;;;;;;;;;;;;;;;5093922;28;19916;-75
2023/11/03 00:52:09;;;;;;;;;;;;;;;;;;5094307;28;19908;-75
2023/11/03 00:54:35;;;;;;;;;;;;;;;;;;5094535;28;19915;-76
2023/11/03 00:57:01;;;;;;;;;;;;;;;;;;5093791;28;19997;-75
2023/11/03 00:59:27;;;;;;;;;;;;;;;;;;5094168;28;19916;-75
2023/11/03 01:01:53;;;;;;;;;;;;;;;;;;5094120;28;19908;-75
2023/11/03 01:04:18;;;;;;;;;;;;;;;;;;5093631;28;20002;-75
2023/11/03 01:06:44;;;;;;;;;;;;;;;;;;5094465;28;19912;-75
2023/11/03 01:09:10;;;;;;;;;;;;;;;;;;5094062;28;19908;-75
2023/11/03 01:11:36;;;;;;;;;;;;;;;;;;5075614;28;19998;-75
2023/11/03 01:14:04;;;;;;;;;;;;;;;;;;5094088;28;19909;-75
2023/11/03 01:16:30;;;;;;;;;;;;;;;;;;5075865;28;19916;-75
2023/11/03 01:18:56;;;;;;;;;;;;;;;;;;5093409;28;19916;-74
2023/11/03 01:21:22;;;;;;;;;;;;;;;;;;5093996;28;19908;-75
2023/11/03 01:23:48;;;;;;;;;;;;;;;;;;5094070;28;19912;-75
2023/11/03 01:26:14;;;;;;;;;;;;;;;;;;5093516;28;20253;-76
2023/11/03 01:28:40;;;;;;;;;;;;;;;;;;5075798;28;19909;-75
2023/11/03 01:31:07;;;;;;;;;;;;;;;;;;5075735;28;19908;-76
2023/11/03 01:33:32;;;;;;;;;;;;;;;;;;5093423;28;19908;-75
2023/11/03 01:35:58;;;;;;;;;;;;;;;;;;5093799;28;20499;-75
2023/11/03 01:38:24;;;;;;;;;;;;;;;;;;5094073;28;20365;-75
2023/11/03 01:40:50;;;;;;;;;;;;;;;;;;5093910;28;19959;-75
2023/11/03 01:43:16;;;;;;;;;;;;;;;;;;5097809;28;19908;-75
2023/11/03 01:45:42;;;;;;;;;;;;;;;;;;5079394;28;19958;-75
2023/11/03 01:48:08;;;;;;;;;;;;;;;;;;5097854;28;19908;-75
2023/11/03 01:50:35;;;;;;;;;;;;;;;;;;5097688;28;19967;-76
2023/11/03 01:53:02;;;;;;;;;;;;;;;;;;5097276;28;20057;-75
2023/11/03 01:55:28;;;;;;;;;;;;;;;;;;5097863;28;19923;-75
2023/11/03 01:57:54;;;;;;;;;;;;;;;;;;5097848;28;19916;-75
2023/11/03 02:00:20;;;;;;;;;;;;;;;;;;5097062;28;19916;-75
2023/11/03 02:02:46;;;;;;;;;;;;;;;;;;5097530;28;19915;-75
2023/11/03 02:05:12;;;;;;;;;;;;;;;;;;5097453;28;19915;-75
2023/11/03 02:07:38;;;;;;;;;;;;;;;;;;5097210;28;19908;-75
2023/11/03 02:10:07;;;;;;;;;;;;;;;;;;5097664;28;19916;-75
2023/11/03 02:12:33;;;;;;;;;;;;;;;;;;5079049;28;19908;-75
2023/11/03 02:14:59;;;;;;;;;;;;;;;;;;5096821;28;19909;-75
2023/11/03 02:17:25;;;;;;;;;;;;;;;;;;5097204;28;19908;-75
2023/11/03 02:19:51;;;;;;;;;;;;;;;;;;5096857;28;19930;-75
2023/11/03 02:22:17;;;;;;;;;;;;;;;;;;5096698;28;19909;-75
2023/11/03 02:24:43;;;;;;;;;;;;;;;;;;5097034;28;19953;-75
2023/11/03 02:27:09;;;;;;;;;;;;;;;;;;5097030;28;19909;-76
2023/11/03 02:29:35;;;;;;;;;;;;;;;;;;5096620;28;19934;-76
2023/11/03 02:32:01;;;;;;;;;;;;;;;;;;5096998;28;19912;-75
2023/11/03 02:34:27;;;;;;;;;;;;;;;;;;5097150;28;19949;-75
2023/11/03 02:36:53;;;;;;;;;;;;;;;;;;5096491;28;20325;-75
2023/11/03 02:39:19;;;;;;;;;;;;;;;;;;5096739;28;20007;-76
2023/11/03 02:41:45;;;;;;;;;;;;;;;;;;5096853;28;19915;-76
2023/11/03 02:44:11;;;;;;;;;;;;;;;;;;5096312;28;19919;-76
2023/11/03 02:46:37;;;;;;;;;;;;;;;;;;5096629;28;19985;-75
2023/11/03 02:49:03;;;;;;;;;;;;;;;;;;5096250;28;19908;-74
2023/11/03 02:51:29;;;;;;;;;;;;;;;;;;5096137;28;19909;-75
2023/11/03 02:53:55;;;;;;;;;;;;;;;;;;5096510;28;19916;-75
2023/11/03 02:56:21;;;;;;;;;;;;;;;;;;5095994;28;19920;-75
2023/11/03 02:58:47;;;;;;;;;;;;;;;;;;5096415;28;19915;-76
2023/11/03 03:01:13;;;;;;;;;;;;;;;;;;5096326;28;19916;-75
2023/11/03 03:03:39;;;;;;;;;;;;;;;;;;5095877;28;19934;-76
2023/11/03 03:06:05;;;;;;;;;;;;;;;;;;5096209;28;20357;-76
2023/11/03 03:08:31;;;;;;;;;;;;;;;;;;5096506;28;20444;-76
2023/11/03 03:10:57;;;;;;;;;;;;;;;;;;5095740;28;19993;-73
2023/11/03 03:13:23;;;;;;;;;;;;;;;;;;5096636;28;19915;-73
2023/11/03 03:15:48;;;;;;;;;;;;;;;;;;5096006;28;19908;-74
2023/11/03 03:18:15;;;;;;;;;;;;;;;;;;5095618;28;19908;-74
2023/11/03 03:20:41;;;;;;;;;;;;;;;;;;5095822;28;19966;-74
2023/11/03 03:23:06;;;;;;;;;;;;;;;;;;5095932;28;19908;-75
2023/11/03 03:25:33;;;;;;;;;;;;;;;;;;5095585;28;19916;-75
2023/11/03 03:27:59;;;;;;;;;;;;;;;;;;5095865;28;19940;-75
2023/11/03 03:30:25;;;;;;;;;;;;;;;;;;5095792;28;19915;-75
2023/11/03 03:32:51;;;;;;;;;;;;;;;;;;5095259;28;19995;-75
2023/11/03 03:35:17;;;;;;;;;;;;;;;;;;5095803;28;19954;-75
2023/11/03 03:37:43;;;;;;;;;;;;;;;;;;5095662;28;19998;-75
2023/11/03 03:40:09;;;;;;;;;;;;;;;;;;5095140;28;19916;-75
2023/11/03 03:42:35;;;;;;;;;;;;;;;;;;5095529;28;19994;-75
2023/11/03 03:45:01;;;;;;;;;;;;;;;;;;5095567;28;19919;-76
2023/11/03 03:47:27;;;;;;;;;;;;;;;;;;5076960;28;19908;-76
2023/11/03 03:49:53;;;;;;;;;;;;;;;;;;5095359;28;20061;-75
2023/11/03 03:52:19;;;;;;;;;;;;;;;;;;5076905;28;19916;-75
2023/11/03 03:54:45;;;;;;;;;;;;;;;;;;5095267;28;19908;-76
2023/11/03 03:57:11;;;;;;;;;;;;;;;;;;5077160;28;19934;-75
2023/11/03 03:59:37;;;;;;;;;;;;;;;;;;5095294;28;19973;-76
2023/11/03 04:02:03;;;;;;;;;;;;;;;;;;5095165;28;19908;-75
2023/11/03 04:04:29;;;;;;;;;;;;;;;;;;5094688;28;19908;-76
2023/11/03 04:06:55;;;;;;;;;;;;;;;;;;5076651;28;19908;-75
2023/11/03 04:09:21;;;;;;;;;;;;;;;;;;5076894;28;19912;-77
2023/11/03 04:11:47;;;;;;;;;;;;;;;;;;5095167;28;19954;-76
2023/11/03 04:14:13;;;;;;;;;;;;;;;;;;5094521;28;19909;-75
2023/11/03 04:16:39;;;;;;;;;;;;;;;;;;5076670;28;19962;-75
2023/11/03 04:19:05;;;;;;;;;;;;;;;;;;5094787;28;19916;-75
2023/11/03 04:21:31;;;;;;;;;;;;;;;;;;5094505;28;19919;-75
2023/11/03 04:23:57;;;;;;;;;;;;;;;;;;5094859;28;19986;-75
2023/11/03 04:26:23;;;;;;;;;;;;;;;;;;5076641;28;20010;-76
2023/11/03 04:28:49;;;;;;;;;;;;;;;;;;5094454;28;19908;-76
2023/11/03 04:31:15;;;;;;;;;;;;;;;;;;5094704;28;20356;-76
2023/11/03 04:33:43;;;;;;;;;;;;;;;;;;5094735;28;20394;-76
2023/11/03 04:36:09;;;;;;;;;;;;;;;;;;5094335;28;20004;-77
2023/11/03 04:38:35;;;;;;;;;;;;;;;;;;5094725;28;19912;-76
2023/11/03 04:41:00;;;;;;;;;;;;;;;;;;5094416;28;19916;-75
2023/11/03 04:43:26;;;;;;;;;;;;;;;;;;5094078;28;19915;-75
2023/11/03 04:45:52;;;;;;;;;;;;;;;;;;5094443;28;19991;-75
2023/11/03 04:48:19;;;;;;;;;;;;;;;;;;5094439;28;19963;-74
2023/11/03 04:50:46;;;;;;;;;;;;;;;;;;5093892;28;20258;-75
2023/11/03 04:53:12;;;;;;;;;;;;;;;;;;5094575;28;19908;-74
2023/11/03 04:55:38;;;;;;;;;;;;;;;;;;5093810;28;19908;-75
2023/11/03 04:58:04;;;;;;;;;;;;;;;;;;5094174;28;19908;-75
2023/11/03 05:00:31;;;;;;;;;;;;;;;;;;5094045;28;19916;-75
2023/11/03 05:02:57;;;;;;;;;;;;;;;;;;5093689;28;20329;-74
2023/11/03 05:05:23;;;;;;;;;;;;;;;;;;5094047;28;19908;-74
2023/11/03 05:07:49;;;;;;;;;;;;;;;;;;5094061;28;19908;-74
2023/11/03 05:10:15;;;;;;;;;;;;;;;;;;5093646;28;19908;-75
2023/11/03 05:12:41;;;;;;;;;;;;;;;;;;5093946;28;19912;-74
2023/11/03 05:15:07;;;;;;;;;;;;;;;;;;5075585;28;19937;-74
2023/11/03 05:17:33;;;;;;;;;;;;;;;;;;5093702;28;19908;-75
2023/11/03 05:19:59;;;;;;;;;;;;;;;;;;5093633;28;20288;-74
2023/11/03 05:22:25;;;;;;;;;;;;;;;;;;5093949;28;20002;-75
2023/11/03 05:24:51;;;;;;;;;;;;;;;;;;5090260;28;19920;-75
2023/11/03 05:27:17;;;;;;;;;;;;;;;;;;5089515;28;20246;-75
2023/11/03 05:29:43;;;;;;;;;;;;;;;;;;5055669;28;19916;-74
2023/11/03 05:32:09;;;;;;;;;;;;;;;;;;5072266;28;19908;-74
2023/11/03 05:34:35;;;;;;;;;;;;;;;;;;5073621;28;20361;-74
2023/11/03 05:37:01;;;;;;;;;;;;;;;;;;5073545;28;19920;-74
2023/11/03 05:39:27;;;;;;;;;;;;;;;;;;5073232;28;19912;-74
2023/11/03 05:41:53;;;;;;;;;;;;;;;;;;5073534;28;19912;-74
2023/11/03 05:44:21;;;;;;;;;;;;;;;;;;5073169;28;19908;-75
2023/11/03 05:46:46;;;;;;;;;;;;;;;;;;5071382;28;19954;-73
2023/11/03 05:49:12;;;;;;;;;;;;;;;;;;5071756;28;19909;-74
2023/11/03 05:51:39;;;;;;;;;;;;;;;;;;5071324;28;19962;-74
2023/11/03 05:54:05;;;;;;;;;;;;;;;;;;5052875;28;19959;-75
2023/11/03 05:56:31;;;;;;;;;;;;;;;;;;5053552;28;20395;-74
2023/11/03 05:58:57;;;;;;;;;;;;;;;;;;5070853;28;19908;-74
2023/11/03 06:01:23;;;;;;;;;;;;;;;;;;5055276;28;19916;-74
2023/11/03 06:03:49;;;;;;;;;;;;;;;;;;5073292;28;19912;-74
2023/11/03 06:06:16;;;;;;;;;;;;;;;;;;5073078;28;19974;-74
2023/11/03 06:08:42;;;;;;;;;;;;;;;;;;5063988;28;19909;-73
2023/11/03 06:11:08;;;;;;;;;;;;;;;;;;5091935;28;20316;-74
2023/11/03 06:13:37;;;;;;;;;;;;;;;;;;5088602;28;20383;-73
2023/11/03 06:16:03;;;;;;;;;;;;;;;;;;5085570;28;19908;-73
2023/11/03 06:18:29;;;;;;;;;;;;;;;;;;5091343;28;19908;-73
2023/11/03 06:20:55;;;;;;;;;;;;;;;;;;5089134;28;20014;-73
2023/11/03 06:23:22;;;;;;;;;;;;;;;;;;5089621;28;19923;-75
2023/11/03 06:25:48;;;;;;;;;;;;;;;;;;5079520;28;19945;-78
2023/11/03 06:28:15;;;;;;;;;;;;;;;;;;5092608;28;19999;-78
2023/11/03 06:30:42;;;;;;;;;;;;;;;;;;5093500;28;19966;-75
2023/11/03 06:33:08;;;;;;;;;;;;;;;;;;5090996;28;19912;-79
2023/11/03 06:35:34;;;;;;;;;;;;;;;;;;5089533;28;19927;-76
2023/11/03 06:38:00;;;;;;;;;;;;;;;;;;5079084;28;19946;-76
2023/11/03 06:40:26;;;;;;;;;;;;;;;;;;5086959;28;19956;-76
2023/11/03 06:42:52;;;;;;;;;;;;;;;;;;5091944;28;19919;-73
2023/11/03 06:45:18;;;;;;;;;;;;;;;;;;5092468;28;19915;-75
2023/11/03 06:47:45;;;;;;;;;;;;;;;;;;5093194;28;19908;-75
2023/11/03 06:50:10;;;;;;;;;;;;;;;;;;5072936;28;19919;-74
2023/11/03 06:52:37;;;;;;;;;;;;;;;;;;5090644;28;20027;-73
2023/11/03 06:55:03;;;;;;;;;;;;;;;;;;5090925;28;20503;-74
2023/11/03 06:57:29;;;;;;;;;;;;;;;;;;5088228;28;19912;-71
2023/11/03 06:59:55;;;;;;;;;;;;;;;;;;5067562;28;19997;-70
2023/11/03 07:02:21;;;;;;;;;;;;;;;;;;5088731;28;19912;-71
2023/11/03 07:04:47;;;;;;;;;;;;;;;;;;5090447;28;19958;-70
2023/11/03 07:07:13;;;;;;;;;;;;;;;;;;5091963;28;19947;-69
2023/11/03 07:09:39;;;;;;;;;;;;;;;;;;5091401;28;20570;-70
2023/11/03 07:12:06;;;;;;;;;;;;;;;;;;5072547;28;20364;-73
2023/11/03 07:14:32;;;;;;;;;;;;;;;;;;5073214;28;19920;-72
2023/11/03 07:16:58;;;;;;;;;;;;;;;;;;5092949;28;19938;-72
2023/11/03 07:19:24;;;;;;;;;;;;;;;;;;5091823;28;20007;-72
2023/11/03 07:21:50;;;;;;;;;;;;;;;;;;5094979;28;21459;-73
2023/11/03 07:24:16;;;;;;;;;;;;;;;;;;5099164;28;19915;-70
2023/11/03 07:26:42;;;;;;;;;;;;;;;;;;5090387;28;19950;-70
2023/11/03 07:29:11;;;;;;;;;;;;;;;;;;5090615;28;20006;-69
2023/11/03 07:31:38;;;;;;;;;;;;;;;;;;5091521;28;19908;-69
2023/11/03 07:34:04;;;;;;;;;;;;;;;;;;5089929;28;19912;-72
2023/11/03 07:36:30;;;;;;;;;;;;;;;;;;5093479;28;19913;-67
2023/11/03 07:38:58;;;;;;;;;;;;;;;;;;5086300;28;20257;-68
2023/11/03 07:41:24;;;;;;;;;;;;;;;;;;5073076;28;19921;-66
2023/11/03 07:43:51;;;;;;;;;;;;;;;;;;5088034;28;19930;-68
2023/11/03 07:46:19;;;;;;;;;;;;;;;;;;5091671;28;20288;-67
2023/11/03 07:48:45;;;;;;;;;;;;;;;;;;5093452;28;19912;-67
2023/11/03 07:54:56;;;;;;;;;;;;;;;;;;5065600;28;19917;-68
2023/11/03 07:58:19;;;;;;;;;;;;;;;;;;5109754;27;19927;-74
2023/11/03 08:00:45;;;;;;;;;;;;;;;;;;5109289;28;19998;-72
2023/11/03 08:03:12;;;;;;;;;;;;;;;;;;5107673;28;19912;-72
2023/11/03 08:07:31;;;;;;;;;;;;;;;;;;5088741;27;19917;-74
2023/11/03 08:09:57;;;;;;;;;;;;;;;;;;5088601;28;20354;-73
2023/11/03 08:12:25;;;;;;;;;;;;;;;;;;5087691;28;19908;-76
2023/11/03 08:14:52;;;;;;;;;;;;;;;;;;5086934;28;20430;-72
2023/11/03 08:19:14;;;;;;;;;;;;;;;;;;5105336;27;19916;-73
2023/11/03 08:22:58;;;;;;;;;;;;;;;;;;5077550;28;19927;-70
2023/11/03 08:33:57;;;;;;;;;;;;;;;;;;5108107;27;19920;-67
2023/11/03 08:36:57;;;;;;;;;;;;;;;;;;5050059;28;19920;-68
2023/11/03 08:39:25;;;;;;;;;;;;;;;;;;5037167;28;19913;-67
2023/11/03 08:41:52;;;;;;;;;;;;;;;;;;5028250;28;20035;-67
2023/11/03 08:44:21;;;;;;;;;;;;;;;;;;5027685;28;20417;-69
2023/11/03 08:50:02;;;;;;;;;;;;;;;;;;5086765;27;19923;-71
2023/11/03 08:53:19;;;;;;;;;;;;;;;;;;5088425;27;19917;-70
2023/11/03 08:58:12;;;;;;;;;;;;;;;;;;5088492;27;19917;-70
2023/11/03 09:04:46;;;;;;;;;;;;;;;;;;5108003;27;19922;-68
2023/11/03 09:10:16;;;;;;;;;;;;;;;;;;5087719;27;19924;-69
2023/11/03 09:15:03;;;;;;;;;;;;;;;;;;5149362;27;20357;-68
2023/11/03 09:20:18;;;;;;;;;;;;;;;;;;5086707;28;20406;-69
2023/11/03 09:23:02;;;;;;;;;;;;;;;;;;5109288;27;19920;-70
2023/11/03 09:26:47;;;;;;;;;;;;;;;;;;5115397;27;19920;-72
2023/11/03 09:30:02;;;;;;;;;;;;;;;;;;5108580;27;20402;-71
2023/11/03 09:35:04;;;;;;;;;;;;;;;;;;5087144;28;19921;-70
2023/11/03 09:37:30;;;;;;;;;;;;;;;;;;5086740;28;19913;-71
2023/11/03 09:39:57;;;;;;;;;;;;;;;;;;5084586;28;19919;-71
2023/11/03 09:42:23;;;;;;;;;;;;;;;;;;5082706;28;20391;-69
2023/11/03 09:44:49;;;;;;;;;;;;;;;;;;5069979;28;19913;-71
2023/11/03 09:47:15;;;;;;;;;;;;;;;;;;5069668;28;19947;-70
2023/11/03 09:49:43;;;;;;;;;;;;;;;;;;5080499;28;19974;-71
2023/11/03 09:52:09;;;;;;;;;;;;;;;;;;5081518;28;20285;-70
2023/11/03 09:54:35;;;;;;;;;;;;;;;;;;5083104;28;19923;-73
2023/11/03 09:57:01;;;;;;;;;;;;;;;;;;5073342;28;20007;-71
2023/11/03 09:59:28;;;;;;;;;;;;;;;;;;5081711;28;19927;-70
2023/11/03 10:03:04;;;;;;;;;;;;;;;;;;5083747;28;19927;-70
2023/11/03 10:06:14;;;;;;;;;;;;;;;;;;5085913;27;19942;-71
2023/11/03 10:08:40;;;;;;;;;;;;;;;;;;5085480;28;20613;-70
2023/11/03 10:11:06;;;;;;;;;;;;;;;;;;5083837;28;20330;-71
2023/11/03 10:17:40;;;;;;;;;;;;;;;;;;5110175;27;19916;-72
2023/11/03 10:20:49;;;;;;;;;;;;;;;;;;5069840;28;20284;-70
2023/11/03 10:23:15;;;;;;;;;;;;;;;;;;5067505;28;19912;-69
2023/11/03 10:25:42;;;;;;;;;;;;;;;;;;5067703;28;19915;-71
2023/11/03 10:28:59;;;;;;;;;;;;;;;;;;5137956;27;19919;-69
2023/11/03 10:32:03;;;;;;;;;;;;;;;;;;5105183;27;20296;-69
2023/11/03 10:41:19;;;;;;;;;;;;;;;;;;5083030;27;20373;-71
2023/11/03 10:44:57;;;;;;;;;;;;;;;;;;5116163;27;19926;-70
2023/11/03 10:49:31;;;;;;;;;;;;;;;;;;5085776;27;19917;-69
2023/11/03 10:51:58;;;;;;;;;;;;;;;;;;5086655;28;20003;-70
2023/11/03 10:57:05;;;;;;;;;;;;;;;;;;5089968;27;19939;-70
2023/11/03 10:59:31;;;;;;;;;;;;;;;;;;5090082;28;19912;-71
2023/11/03 11:01:58;;;;;;;;;;;;;;;;;;5073886;28;19951;-70
2023/11/03 11:04:23;;;;;;;;;;;;;;;;;;5068692;28;19913;-71
2023/11/03 11:06:49;;;;;;;;;;;;;;;;;;5067883;28;19913;-70
2023/11/03 11:09:43;;;;;;;;;;;;;;;;;;5141529;27;19916;-69
2023/11/03 11:15:29;;;;;;;;;;;;;;;;;;5094664;27;19920;-70
2023/11/03 11:18:07;;;;;;;;;;;;;;;;;;5089151;28;19921;-70
2023/11/03 11:20:33;;;;;;;;;;;;;;;;;;5067220;28;19960;-70
2023/11/03 11:27:04;;;;;;;;;;;;;;;;;;5086629;28;19923;-69
2023/11/03 11:29:30;;;;;;;;;;;;;;;;;;5062671;28;20300;-69
2023/11/03 11:36:47;;;;;;;;;;;;;;;;;;5048477;28;20377;-69
2023/11/03 11:42:44;;;;;;;;;;;;;;;;;;5110823;27;19920;-68
2023/11/03 11:45:10;;;;;;;;;;;;;;;;;;5091735;28;19912;-69
2023/11/03 11:47:38;;;;;;;;;;;;;;;;;;5090597;28;19932;-71
2023/11/03 11:50:05;;;;;;;;;;;;;;;;;;5088435;28;19908;-68
2023/11/03 11:54:02;;;;;;;;;;;;;;;;;;5087980;28;20415;-68
2023/11/03 11:59:43;;;;;;;;;;;;;;;;;;5106838;27;20280;-69
2023/11/03 12:02:09;;;;;;;;;;;;;;;;;;5089926;28;20312;-68
2023/11/03 12:04:36;;;;;;;;;;;;;;;;;;5106568;28;19938;-68
2023/11/03 12:07:02;;;;;;;;;;;;;;;;;;5110695;28;19909;-68
2023/11/03 12:09:28;;;;;;;;;;;;;;;;;;5109417;28;20423;-67
2023/11/03 12:18:00;;;;;;;;;;;;;;;;;;5089950;27;19917;-69
2023/11/03 12:22:19;;;;;;;;;;;;;;;;;;5090107;27;19916;-67
2023/11/03 12:24:45;;;;;;;;;;;;;;;;;;5089939;28;19912;-67
2023/11/03 12:27:30;;;;;;;;;;;;;;;;;;5129139;27;19919;-69
2023/11/03 12:29:56;;;;;;;;;;;;;;;;;;5128060;28;19912;-69
2023/11/03 12:39:13;;;;;;;;;;;;;;;;;;5119873;27;19920;-69
2023/11/03 12:41:41;;;;;;;;;;;;;;;;;;5109526;28;19926;-68
2023/11/03 12:44:07;;;;;;;;;;;;;;;;;;5109087;28;19908;-69
2023/11/03 12:46:36;;;;;;;;;;;;;;;;;;5109229;28;20069;-68
2023/11/03 12:49:52;;;;;;;;;;;;;;;;;;5069152;28;20403;-68
2023/11/03 12:52:18;;;;;;;;;;;;;;;;;;5068921;28;20600;-69
2023/11/03 12:56:32;;;;;;;;;;;;;;;;;;5089952;27;19920;-68
2023/11/03 13:01:01;;;;;;;;;;;;;;;;;;5089326;27;20110;-69
2023/11/03 13:04:49;;;;;;;;;;;;;;;;;;5089696;28;19927;-69
2023/11/03 13:11:02;;;;;;;;;;;;;;;;;;5110811;27;19934;-70
2023/11/03 13:15:22;;;;;;;;;;;;;;;;;;5068589;28;19921;-67
2023/11/03 13:19:00;;;;;;;;;;;;;;;;;;5089513;27;20292;-68
2023/11/03 13:22:21;;;;;;;;;;;;;;;;;;5087617;27;19923;-68
2023/11/03 13:29:39;;;;;;;;;;;;;;;;;;5110117;27;19916;-67
2023/11/03 13:32:23;;;;;;;;;;;;;;;;;;5110420;27;19912;-68
2023/11/03 13:34:49;;;;;;;;;;;;;;;;;;5110630;28;19999;-68
2023/11/03 13:37:25;;;;;;;;;;;;;;;;;;5090503;28;19923;-70
2023/11/03 13:39:52;;;;;;;;;;;;;;;;;;5089560;28;20424;-69
2023/11/03 13:43:23;;;;;;;;;;;;;;;;;;5082483;27;20638;-68
2023/11/03 13:45:49;;;;;;;;;;;;;;;;;;5086566;28;19912;-67
2023/11/03 13:48:15;;;;;;;;;;;;;;;;;;5083021;28;19940;-67
2023/11/03 13:58:44;;;;;;;;;;;;;;;;;;5102172;27;19923;-71
2023/11/03 14:01:11;;;;;;;;;;;;;;;;;;5070704;28;20007;-73
2023/11/03 14:03:37;;;;;;;;;;;;;;;;;;5088059;28;19909;-73
2023/11/03 14:06:07;;;;;;;;;;;;;;;;;;5087331;28;19919;-73
2023/11/03 14:08:33;;;;;;;;;;;;;;;;;;5089505;28;19912;-73
2023/11/03 14:13:13;;;;;;;;;;;;;;;;;;5090026;27;20277;-73
2023/11/03 14:15:39;;;;;;;;;;;;;;;;;;5088848;28;19916;-73
2023/11/03 14:18:05;;;;;;;;;;;;;;;;;;5088277;28;20380;-73
2023/11/03 14:20:31;;;;;;;;;;;;;;;;;;5088787;28;19908;-73
2023/11/03 14:22:57;;;;;;;;;;;;;;;;;;5088472;28;19908;-74
2023/11/03 14:25:25;;;;;;;;;;;;;;;;;;5089045;28;19912;-74
2023/11/03 14:31:00;;;;;;;;;;;;;;;;;;5090705;27;19917;-73
2023/11/03 14:35:04;;;;;;;;;;;;;;;;;;5091385;28;19923;-73
2023/11/03 14:37:30;;;;;;;;;;;;;;;;;;5091260;28;19919;-73
2023/11/03 14:41:00;;;;;;;;;;;;;;;;;;5091322;27;19923;-73
2023/11/03 14:45:59;;;;;;;;;;;;;;;;;;5091859;27;19917;-73
2023/11/03 14:48:25;;;;;;;;;;;;;;;;;;5090811;28;19912;-73
2023/11/03 14:50:51;;;;;;;;;;;;;;;;;;5091192;28;19909;-73
2023/11/03 14:54:35;;;;;;;;;;;;;;;;;;5091174;27;19923;-75
2023/11/03 14:59:43;;;;;;;;;;;;;;;;;;5092025;27;19923;-73
2023/11/03 15:02:36;;;;;;;;;;;;;;;;;;5111242;27;20384;-73
2023/11/03 15:13:46;;;;;;;;;;;;;;;;;;5091534;27;19923;-72
2023/11/03 15:16:13;;;;;;;;;;;;;;;;;;5090600;28;19947;-75
2023/11/03 15:21:27;;;;;;;;;;;;;;;;;;5174510;27;20367;-74
2023/11/03 15:26:48;;;;;;;;;;;;;;;;;;5153660;27;20262;-73
2023/11/03 15:29:14;;;;;;;;;;;;;;;;;;5152519;27;20010;-73
2023/11/03 15:31:40;;;;;;;;;;;;;;;;;;5134453;27;19946;-74
2023/11/03 15:36:17;;;;;;;;;;;;;;;;;;5091392;27;19919;-73
2023/11/03 15:38:43;;;;;;;;;;;;;;;;;;5091296;28;20415;-74
2023/11/03 15:41:11;;;;;;;;;;;;;;;;;;5091247;28;20373;-73
2023/11/03 15:44:38;;;;;;;;;;;;;;;;;;5111317;27;19916;-74
2023/11/03 15:49:10;;;;;;;;;;;;;;;;;;5132979;27;19915;-75
2023/11/03 15:51:38;;;;;;;;;;;;;;;;;;5130562;28;20018;-75
2023/11/03 15:54:05;;;;;;;;;;;;;;;;;;5132114;27;19907;-74
2023/11/03 15:58:28;;;;;;;;;;;;;;;;;;5091118;27;19916;-74
2023/11/03 16:00:54;;;;;;;;;;;;;;;;;;5091218;28;19919;-73
2023/11/03 16:05:54;;;;;;;;;;;;;;;;;;5091111;27;19913;-75
2023/11/03 16:08:21;;;;;;;;;;;;;;;;;;5091236;28;19913;-74
2023/11/03 16:12:22;;;;;;;;;;;;;;;;;;5091201;27;19918;-74
2023/11/03 16:19:02;;;;;;;;;;;;;;;;;;5111528;27;19916;-74
2023/11/03 16:23:00;;;;;;;;;;;;;;;;;;5091438;28;19916;-74
2023/11/03 16:26:41;;;;;;;;;;;;;;;;;;5070751;28;19917;-75
2023/11/03 16:29:57;;;;;;;;;;;;;;;;;;5112507;27;19916;-74
2023/11/03 16:33:39;;;;;;;;;;;;;;;;;;5090936;27;19912;-74
2023/11/03 16:39:14;;;;;;;;;;;;;;;;;;5091626;27;20309;-74
2023/11/03 16:44:51;;;;;;;;;;;;;;;;;;5091269;27;19916;-75
2023/11/03 16:49:15;;;;;;;;;;;;;;;;;;5091420;27;19913;-74
2023/11/03 16:51:46;;;;;;;;;;;;;;;;;;5091283;28;20373;-74
2023/11/03 16:54:12;;;;;;;;;;;;;;;;;;5090862;28;19969;-74
2023/11/03 16:56:39;;;;;;;;;;;;;;;;;;5091274;28;19908;-72
2023/11/03 16:59:05;;;;;;;;;;;;;;;;;;5091158;28;19913;-74
2023/11/03 17:04:11;;;;;;;;;;;;;;;;;;5153266;27;20001;-72
2023/11/03 17:09:23;;;;;;;;;;;;;;;;;;5071205;28;19919;-73
2023/11/03 17:11:51;;;;;;;;;;;;;;;;;;5071166;28;19913;-73
2023/11/03 17:15:11;;;;;;;;;;;;;;;;;;5091256;28;19916;-74
2023/11/03 17:17:37;;;;;;;;;;;;;;;;;;5089975;28;19912;-74
2023/11/03 17:20:24;;;;;;;;;;;;;;;;;;5091492;27;20276;-73
2023/11/03 17:22:51;;;;;;;;;;;;;;;;;;5089722;28;19916;-73
2023/11/03 17:27:16;;;;;;;;;;;;;;;;;;5112571;27;19916;-75
2023/11/03 17:29:44;;;;;;;;;;;;;;;;;;5111363;28;20344;-74
2023/11/03 17:32:11;;;;;;;;;;;;;;;;;;5111691;28;19908;-75
2023/11/03 17:37:33;;;;;;;;;;;;;;;;;;5090773;27;19922;-74
2023/11/03 17:39:59;;;;;;;;;;;;;;;;;;5091206;28;20323;-72
2023/11/03 17:47:06;;;;;;;;;;;;;;;;;;5091304;27;20385;-72
2023/11/03 17:49:32;;;;;;;;;;;;;;;;;;5089583;28;20376;-72
2023/11/03 17:51:59;;;;;;;;;;;;;;;;;;5091164;28;19915;-72
2023/11/03 17:54:25;;;;;;;;;;;;;;;;;;5089915;28;19909;-73
2023/11/03 17:56:52;;;;;;;;;;;;;;;;;;5090791;28;20291;-73
2023/11/03 18:00:46;;;;;;;;;;;;;;;;;;5091429;27;19923;-74
2023/11/03 18:03:15;;;;;;;;;;;;;;;;;;5091247;28;20372;-73
2023/11/03 18:05:41;;;;;;;;;;;;;;;;;;5090905;28;20249;-73
2023/11/03 18:08:07;;;;;;;;;;;;;;;;;;5090026;28;19914;-74
2023/11/03 18:10:33;;;;;;;;;;;;;;;;;;5089593;28;20280;-73
2023/11/03 18:15:31;;;;;;;;;;;;;;;;;;5091351;27;19917;-72
2023/11/03 18:17:57;;;;;;;;;;;;;;;;;;5090940;28;19912;-72
2023/11/03 18:34:02;;;;;;;;;;;;;;;;;;5111629;27;20379;-74
2023/11/03 18:37:38;;;;;;;;;;;;;;;;;;5091035;27;19916;-72
2023/11/03 18:40:06;;;;;;;;;;;;;;;;;;5091126;28;19934;-73
2023/11/03 18:43:14;;;;;;;;;;;;;;;;;;5091626;27;19939;-75
2023/11/03 18:45:40;;;;;;;;;;;;;;;;;;5090896;28;19991;-75
2023/11/03 18:49:55;;;;;;;;;;;;;;;;;;5092083;28;19916;-73
2023/11/03 18:52:23;;;;;;;;;;;;;;;;;;5090885;28;20007;-73
2023/11/03 18:54:49;;;;;;;;;;;;;;;;;;5091270;28;20470;-74
2023/11/03 18:57:15;;;;;;;;;;;;;;;;;;5091289;28;19908;-74
2023/11/03 18:59:41;;;;;;;;;;;;;;;;;;5090777;28;19954;-74
2023/11/03 19:02:07;;;;;;;;;;;;;;;;;;5091153;28;20232;-74
2023/11/03 19:04:51;;;;;;;;;;;;;;;;;;5091777;27;19923;-72
2023/11/03 19:08:45;;;;;;;;;;;;;;;;;;5132394;27;20310;-72
2023/11/03 19:11:11;;;;;;;;;;;;;;;;;;5130864;27;20003;-74
2023/11/03 19:13:37;;;;;;;;;;;;;;;;;;5131816;27;19908;-73
2023/11/03 19:16:03;;;;;;;;;;;;;;;;;;5132444;27;19946;-73
2023/11/03 19:23:13;;;;;;;;;;;;;;;;;;5071264;28;20386;-74
2023/11/03 19:25:41;;;;;;;;;;;;;;;;;;5069825;28;19999;-74
2023/11/03 19:28:08;;;;;;;;;;;;;;;;;;5070661;28;20291;-73
2023/11/03 19:30:35;;;;;;;;;;;;;;;;;;5069758;28;19931;-75
2023/11/03 19:33:01;;;;;;;;;;;;;;;;;;5069774;28;20284;-74
2023/11/03 19:35:29;;;;;;;;;;;;;;;;;;5070638;28;19909;-72
2023/11/03 19:38:56;;;;;;;;;;;;;;;;;;5091445;27;19923;-73
2023/11/03 19:41:22;;;;;;;;;;;;;;;;;;5090981;28;19999;-73
2023/11/03 19:45:23;;;;;;;;;;;;;;;;;;5091274;27;19917;-72
2023/11/03 19:47:49;;;;;;;;;;;;;;;;;;5091192;28;19912;-73
2023/11/03 19:50:15;;;;;;;;;;;;;;;;;;5091150;28;19962;-74
2023/11/03 19:52:41;;;;;;;;;;;;;;;;;;5091207;28;19908;-72
2023/11/03 19:55:07;;;;;;;;;;;;;;;;;;5089523;28;19909;-73
2023/11/03 19:57:33;;;;;;;;;;;;;;;;;;5090993;28;19912;-74
2023/11/03 20:04:25;;;;;;;;;;;;;;;;;;5091414;28;20294;-74
2023/11/03 20:06:52;;;;;;;;;;;;;;;;;;5091581;28;19998;-73
2023/11/03 20:09:18;;;;;;;;;;;;;;;;;;5090878;28;19908;-72
2023/11/03 20:11:44;;;;;;;;;;;;;;;;;;5090074;28;19908;-72
2023/11/03 20:14:10;;;;;;;;;;;;;;;;;;5091112;28;20386;-72
2023/11/03 20:16:36;;;;;;;;;;;;;;;;;;5090796;28;19909;-73
2023/11/03 20:19:18;;;;;;;;;;;;;;;;;;5132566;27;19924;-73
2023/11/03 20:21:45;;;;;;;;;;;;;;;;;;5132083;28;19911;-72
2023/11/03 20:24:12;;;;;;;;;;;;;;;;;;5131798;27;19911;-73
2023/11/03 20:26:38;;;;;;;;;;;;;;;;;;5132174;27;19907;-73
2023/11/03 20:29:07;;;;;;;;;;;;;;;;;;5132096;27;19918;-73
2023/11/03 20:31:33;;;;;;;;;;;;;;;;;;5131090;27;19998;-74
2023/11/03 20:33:59;;;;;;;;;;;;;;;;;;5129793;28;19994;-74
2023/11/03 20:36:59;;;;;;;;;;;;;;;;;;5112117;27;19916;-74